Time;durP1;ratioP1;P1;durP2;ratioP2;P2;SDS_P1;SDS_P2;PMS_P1;PMS_P2;Temp;Humidity;BMP_temperature;BMP_pressure;BME280_temperature;BME280_humidity;BME280_pressure;Samples;Min_cycle;Max_cycle;Signal;HPM_P1;HPM_P2
2023/02/14 00:01:33;;;;;;;8.67;7.90;;;5.00;1.00;;;;;;5050178;28;20599;-63
2023/02/14 00:04:00;;;;;;;8.90;8.10;;;5.00;1.00;;;;;;5053449;28;20173;-63
2023/02/14 00:06:26;;;;;;;9.40;8.30;;;4.90;1.00;;;;;;5054661;28;20198;-63
2023/02/14 00:08:53;;;;;;;9.47;8.47;;;4.90;1.00;;;;;;5054216;28;20182;-63
2023/02/14 00:11:19;;;;;;;9.97;8.97;;;4.80;1.00;;;;;;5054113;28;20171;-63
2023/02/14 00:16:30;;;;;;;10.30;9.30;;;4.70;1.00;;;;;;5054414;28;20359;-63
2023/02/14 00:19:03;;;;;;;9.87;9.00;;;4.70;1.00;;;;;;5053989;28;20174;-63
2023/02/14 00:21:29;;;;;;;10.10;9.03;;;4.80;1.00;;;;;;5053921;28;20207;-63
2023/02/14 00:23:55;;;;;;;10.33;9.50;;;4.70;1.00;;;;;;5054169;28;20171;-63
2023/02/14 00:26:20;;;;;;;10.27;9.37;;;4.80;1.00;;;;;;5054035;28;20202;-62
2023/02/14 00:28:46;;;;;;;10.30;9.20;;;4.80;1.00;;;;;;5054140;28;20649;-62
2023/02/14 00:31:11;;;;;;;10.20;9.13;;;4.80;1.00;;;;;;5053902;28;20174;-63
2023/02/14 00:33:37;;;;;;;9.10;8.47;;;4.80;1.00;;;;;;5054075;28;20174;-63
2023/02/14 00:36:05;;;;;;;10.00;9.10;;;4.80;1.00;;;;;;5054149;28;20195;-63
2023/02/14 00:38:31;;;;;;;8.57;8.07;;;4.70;1.00;;;;;;5053877;28;20257;-63
2023/02/14 00:40:57;;;;;;;9.90;9.03;;;4.70;1.00;;;;;;5053424;28;20296;-63
2023/02/14 00:43:22;;;;;;;9.73;8.83;;;4.60;1.00;;;;;;5053947;28;20657;-63
2023/02/14 00:45:48;;;;;;;9.07;8.17;;;4.60;1.00;;;;;;5053416;28;20210;-63
2023/02/14 00:48:14;;;;;;;9.27;8.47;;;4.50;1.00;;;;;;5053781;28;20174;-63
2023/02/14 00:50:39;;;;;;;8.93;8.23;;;4.50;1.00;;;;;;5053704;28;20529;-63
2023/02/14 00:53:05;;;;;;;10.23;9.43;;;4.40;1.00;;;;;;5053564;28;20206;-64
2023/02/14 00:55:30;;;;;;;9.27;8.60;;;4.40;1.00;;;;;;5052199;28;20221;-64
2023/02/14 00:57:56;;;;;;;9.40;8.73;;;4.30;1.00;;;;;;5054390;28;20703;-63
2023/02/14 01:00:22;;;;;;;11.40;10.30;;;4.30;1.00;;;;;;5053165;28;20224;-63
2023/02/14 01:02:47;;;;;;;10.37;9.30;;;4.30;2.80;;;;;;5053074;28;20177;-63
2023/02/14 01:05:13;;;;;;;9.43;8.77;;;4.30;6.10;;;;;;5053241;28;20281;-63
2023/02/14 01:07:38;;;;;;;8.83;8.13;;;4.20;6.30;;;;;;5053154;28;20171;-63
2023/02/14 01:10:04;;;;;;;10.00;9.23;;;4.20;17.70;;;;;;5052925;28;20220;-63
2023/02/14 01:12:30;;;;;;;10.57;9.60;;;4.20;19.30;;;;;;5053196;28;20189;-63
2023/02/14 01:14:55;;;;;;;11.07;10.20;;;4.20;19.00;;;;;;5052036;28;20203;-63
2023/02/14 01:17:21;;;;;;;9.87;9.10;;;4.20;13.40;;;;;;5053120;28;20178;-63
2023/02/14 01:19:47;;;;;;;10.87;10.00;;;4.10;1.00;;;;;;5052774;28;20177;-63
2023/02/14 01:22:12;;;;;;;10.10;9.20;;;4.10;1.00;;;;;;5053032;28;20562;-63
2023/02/14 01:24:38;;;;;;;11.70;10.60;;;4.10;1.00;;;;;;5052735;28;20244;-63
2023/02/14 01:27:03;;;;;;;10.33;9.63;;;4.00;1.00;;;;;;5053027;28;20229;-63
2023/02/14 01:29:29;;;;;;;9.80;9.30;;;3.90;1.00;;;;;;5053098;28;20175;-63
2023/02/14 01:31:54;;;;;;;11.03;10.13;;;3.90;1.00;;;;;;5052725;28;20198;-63
2023/02/14 01:34:20;;;;;;;11.67;10.53;;;3.80;1.00;;;;;;5052836;28;20228;-63
2023/02/14 01:36:45;;;;;;;12.00;11.00;;;3.80;1.00;;;;;;5052574;28;20182;-63
2023/02/14 01:39:13;;;;;;;11.13;10.17;;;3.80;1.00;;;;;;5052638;28;20213;-63
2023/02/14 01:41:41;;;;;;;10.70;9.97;;;3.70;19.30;;;;;;5052444;28;20194;-63
2023/02/14 01:44:12;;;;;;;10.70;9.93;;;3.70;40.80;;;;;;5052629;28;20167;-63
2023/02/14 01:46:39;;;;;;;11.40;10.33;;;3.70;64.10;;;;;;5052792;28;20240;-64
2023/02/14 01:49:08;;;;;;;13.33;12.07;;;3.70;71.20;;;;;;5052444;28;20601;-64
2023/02/14 01:51:36;;;;;;;11.83;11.03;;;3.70;50.00;;;;;;5052357;28;20592;-64
2023/02/14 01:54:04;;;;;;;14.00;11.53;;;3.60;17.70;;;;;;5052450;28;20175;-64
2023/02/14 01:56:42;;;;;;;13.00;11.87;;;3.50;6.90;;;;;;5052570;28;20202;-64
2023/02/14 01:59:11;;;;;;;13.30;12.23;;;3.40;1.00;;;;;;5052050;28;20253;-64
2023/02/14 02:01:39;;;;;;;12.23;11.20;;;3.30;1.00;;;;;;5051090;28;20345;-64
2023/02/14 02:04:18;;;;;;;11.90;10.93;;;3.20;1.00;;;;;;5052132;28;20204;-64
2023/02/14 02:06:48;;;;;;;11.10;10.30;;;3.20;1.00;;;;;;5052007;28;20163;-64
2023/02/14 02:09:20;;;;;;;10.03;9.37;;;3.10;1.00;;;;;;5052055;28;20331;-64
2023/02/14 02:11:46;;;;;;;10.27;9.63;;;3.10;1.60;;;;;;5052065;28;20262;-63
2023/02/14 02:14:17;;;;;;;9.00;8.40;;;3.00;1.40;;;;;;5052055;28;20273;-63
2023/02/14 02:17:31;;;;;;;16.50;9.30;;;2.90;1.00;;;;;;5051764;28;20175;-63
2023/02/14 02:20:05;;;;;;;10.63;9.80;;;2.80;1.80;;;;;;5038530;28;20191;-63
2023/02/14 02:22:50;;;;;;;11.47;10.57;;;2.80;23.10;;;;;;5051879;28;20202;-64
2023/02/14 02:25:18;;;;;;;11.37;10.23;;;2.70;42.50;;;;;;5051785;28;20190;-64
2023/02/14 02:27:52;;;;;;;9.87;9.27;;;2.70;65.30;;;;;;5051724;28;20167;-64
2023/02/14 02:30:36;;;;;;;10.23;9.30;;;2.70;97.20;;;;;;5051419;28;20167;-63
2023/02/14 02:33:23;;;;;;;10.33;9.53;;;2.70;99.90;;;;;;5051714;28;20229;-63
2023/02/14 02:35:57;;;;;;;9.73;9.20;;;2.70;99.90;;;;;;5051645;28;20186;-64
2023/02/14 02:39:06;;;;;;;11.07;10.30;;;2.70;99.90;;;;;;5051723;28;20659;-64
2023/02/14 02:42:03;;;;;;;10.70;9.80;;;2.80;99.90;;;;;;5051681;28;20202;-64
2023/02/14 02:45:02;;;;;;;10.60;9.73;;;2.80;99.90;;;;;;5038247;28;20202;-63
2023/02/14 02:47:57;;;;;;;9.83;9.03;;;2.80;99.90;;;;;;5051655;28;20586;-64
2023/02/14 02:53:50;;;;;;;10.00;9.27;;;2.80;99.90;;;;;;5051891;28;20177;-64
2023/02/14 02:56:46;;;;;;;9.83;8.93;;;2.90;99.90;;;;;;5051335;28;20746;-64
2023/02/14 02:59:33;;;;;;;10.60;9.80;;;2.90;99.90;;;;;;5051215;28;20171;-64
2023/02/14 03:02:24;;;;;;;10.30;9.30;;;2.90;99.90;;;;;;5050410;28;20228;-64
2023/02/14 03:04:55;;;;;;;14.57;10.03;;;2.90;99.90;;;;;;5051052;28;20226;-64
2023/02/14 03:07:40;;;;;;;10.00;9.13;;;2.90;99.90;;;;;;5053078;28;20582;-67
2023/02/14 03:10:20;;;;;;;12.20;9.83;;;2.90;99.90;;;;;;5053168;28;20167;-65
2023/02/14 03:12:51;;;;;;;10.57;9.63;;;2.90;99.90;;;;;;5053278;28;20174;-68
2023/02/14 03:15:26;;;;;;;8.80;8.10;;;2.90;99.90;;;;;;5052153;28;20199;-65
2023/02/14 03:18:04;;;;;;;9.97;8.90;;;2.90;99.90;;;;;;5053327;28;20167;-69
2023/02/14 03:21:21;;;;;;;9.33;8.53;;;2.90;99.90;;;;;;5053030;28;20166;-69
2023/02/14 03:23:59;;;;;;;13.20;9.60;;;2.80;99.90;;;;;;5019474;28;20182;-65
2023/02/14 03:26:27;;;;;;;10.67;9.63;;;2.70;99.90;;;;;;5053204;28;20615;-65
2023/02/14 03:29:18;;;;;;;10.10;9.27;;;2.70;99.90;;;;;;5053327;28;20166;-67
2023/02/14 03:32:01;;;;;;;10.10;9.20;;;2.70;99.90;;;;;;5053650;28;20560;-67
2023/02/14 03:34:56;;;;;;;10.33;9.10;;;2.60;99.90;;;;;;5053534;28;20170;-66
2023/02/14 03:37:28;;;;;;;9.00;8.07;;;2.60;99.90;;;;;;5054042;28;20584;-68
2023/02/14 03:40:22;;;;;;;11.27;10.30;;;2.60;99.90;;;;;;5057180;28;20248;-66
2023/02/14 03:43:04;;;;;;;9.93;8.97;;;2.50;99.90;;;;;;5026925;28;20194;-67
2023/02/14 03:45:45;;;;;;;10.90;9.30;;;2.50;99.90;;;;;;5057211;28;20213;-65
2023/02/14 03:48:13;;;;;;;12.03;11.00;;;2.40;99.90;;;;;;5057013;28;20257;-67
2023/02/14 03:50:42;;;;;;;9.67;8.90;;;2.40;99.90;;;;;;5056808;28;20752;-65
2023/02/14 03:53:10;;;;;;;12.43;9.70;;;2.40;99.90;;;;;;5056801;28;20297;-67
2023/02/14 03:55:46;;;;;;;11.17;10.20;;;2.40;99.90;;;;;;5057123;28;20202;-66
2023/02/14 03:58:35;;;;;;;13.10;10.97;;;2.40;99.90;;;;;;5057098;28;20178;-66
2023/02/14 04:01:20;;;;;;;11.47;10.63;;;2.40;99.90;;;;;;5055513;28;20297;-65
2023/02/14 04:03:46;;;;;;;10.80;9.80;;;2.30;99.90;;;;;;5056895;28;20166;-65
2023/02/14 04:06:12;;;;;;;9.67;9.07;;;2.30;99.90;;;;;;5057007;28;20197;-67
2023/02/14 04:08:38;;;;;;;9.90;9.03;;;2.30;99.90;;;;;;5056722;28;20595;-67
2023/02/14 04:11:04;;;;;;;10.23;9.53;;;2.30;99.90;;;;;;5056030;28;20175;-68
2023/02/14 04:13:30;;;;;;;11.37;10.50;;;2.30;99.90;;;;;;5056594;28;20179;-69
2023/02/14 04:15:56;;;;;;;10.77;9.87;;;2.30;99.90;;;;;;5055801;28;20248;-67
2023/02/14 04:21:06;;;;;;;9.30;8.67;;;2.30;99.90;;;;;;5056108;28;20260;-66
2023/02/14 04:23:31;;;;;;;9.67;8.97;;;2.20;99.90;;;;;;5056363;28;20167;-66
2023/02/14 04:25:57;;;;;;;11.40;10.27;;;2.20;99.90;;;;;;5056238;28;20191;-66
2023/02/14 04:28:23;;;;;;;11.87;10.70;;;2.20;99.90;;;;;;5054482;28;20175;-66
2023/02/14 04:30:48;;;;;;;11.23;10.10;;;2.10;99.90;;;;;;5055528;28;20177;-67
2023/02/14 04:33:14;;;;;;;9.97;9.27;;;2.10;99.90;;;;;;5056094;28;20171;-67
2023/02/14 04:35:39;;;;;;;11.50;10.60;;;2.20;99.90;;;;;;5055587;28;20328;-66
2023/02/14 04:38:06;;;;;;;10.37;9.57;;;2.20;99.90;;;;;;5055971;28;20179;-68
2023/02/14 04:40:32;;;;;;;11.43;10.33;;;2.10;99.90;;;;;;5055378;28;20171;-69
2023/02/14 04:42:59;;;;;;;9.93;9.20;;;2.10;99.90;;;;;;5055632;28;20216;-67
2023/02/14 04:45:24;;;;;;;9.97;9.27;;;2.10;99.90;;;;;;5055558;28;20627;-66
2023/02/14 04:47:50;;;;;;;10.57;9.47;;;2.20;99.90;;;;;;5056015;28;20166;-66
2023/02/14 04:50:17;;;;;;;15.07;9.30;;;2.20;99.90;;;;;;5054078;28;20210;-67
2023/02/14 04:52:42;;;;;;;11.30;10.57;;;2.20;99.90;;;;;;5054434;28;20186;-65
2023/02/14 04:55:08;;;;;;;11.30;10.17;;;2.20;99.90;;;;;;5055421;28;20199;-65
2023/02/14 04:57:34;;;;;;;11.13;10.03;;;2.30;99.90;;;;;;5055709;28;20266;-70
2023/02/14 04:59:59;;;;;;;10.03;9.23;;;2.30;99.90;;;;;;5054197;28;20179;-67
2023/02/14 05:02:25;;;;;;;18.13;10.80;;;2.40;99.90;;;;;;5055464;28;20198;-67
2023/02/14 05:04:51;;;;;;;10.73;9.73;;;2.30;99.90;;;;;;5055007;28;20206;-67
2023/02/14 05:07:16;;;;;;;14.67;10.80;;;2.30;99.90;;;;;;5055490;28;20167;-69
2023/02/14 05:09:42;;;;;;;13.50;10.17;;;2.30;99.90;;;;;;5053885;28;20174;-66
2023/02/14 05:12:07;;;;;;;20.83;10.90;;;2.30;99.90;;;;;;5055235;28;20175;-68
2023/02/14 05:14:33;;;;;;;11.73;10.77;;;2.20;99.90;;;;;;5055032;28;20214;-67
2023/02/14 05:16:59;;;;;;;17.23;11.40;;;2.20;99.90;;;;;;5055311;28;20182;-67
2023/02/14 05:19:24;;;;;;;16.03;12.47;;;2.20;99.90;;;;;;5054748;28;20186;-66
2023/02/14 05:21:50;;;;;;;12.67;10.07;;;2.10;99.90;;;;;;5054774;28;20297;-69
2023/02/14 05:24:16;;;;;;;11.37;10.20;;;2.00;99.90;;;;;;5055148;28;20518;-69
2023/02/14 05:26:41;;;;;;;13.23;10.37;;;2.00;99.90;;;;;;5055109;28;20171;-68
2023/02/14 05:29:07;;;;;;;11.37;9.60;;;2.00;99.90;;;;;;5055002;28;20181;-66
2023/02/14 05:31:33;;;;;;;10.20;9.23;;;2.00;99.90;;;;;;5054696;28;20213;-66
2023/02/14 05:33:58;;;;;;;11.80;10.83;;;2.00;99.90;;;;;;5055072;28;20624;-69
2023/02/14 05:36:24;;;;;;;12.00;11.17;;;2.00;99.90;;;;;;5054824;28;20206;-70
2023/02/14 05:38:49;;;;;;;12.43;11.20;;;2.00;99.90;;;;;;5053173;28;20640;-67
2023/02/14 05:41:15;;;;;;;10.40;9.47;;;2.00;99.90;;;;;;5054082;28;20203;-67
2023/02/14 05:43:41;;;;;;;11.47;10.47;;;2.00;99.90;;;;;;5054360;28;20175;-67
2023/02/14 05:46:06;;;;;;;11.77;10.90;;;2.00;99.90;;;;;;5054375;28;20267;-67
2023/02/14 05:48:33;;;;;;;12.40;11.13;;;2.00;99.90;;;;;;5054665;28;20179;-66
2023/02/14 05:51:07;;;;;;;11.00;10.30;;;2.00;99.90;;;;;;5054200;28;20181;-66
2023/02/14 05:53:33;;;;;;;14.27;11.13;;;2.10;99.90;;;;;;5054345;28;20599;-69
2023/02/14 05:55:59;;;;;;;14.30;11.63;;;2.10;99.90;;;;;;5054329;28;20676;-66
2023/02/14 05:58:24;;;;;;;12.13;11.07;;;2.10;99.90;;;;;;5054612;28;20182;-67
2023/02/14 06:00:50;;;;;;;11.83;10.83;;;2.10;99.90;;;;;;5052730;28;20198;-66
2023/02/14 06:03:16;;;;;;;11.70;10.90;;;2.10;99.90;;;;;;5054369;28;20183;-67
2023/02/14 06:05:41;;;;;;;11.13;10.27;;;2.10;99.90;;;;;;5055790;28;20190;-67
2023/02/14 06:08:07;;;;;;;11.97;10.73;;;2.10;99.90;;;;;;5052926;28;20236;-66
2023/02/14 06:10:33;;;;;;;12.60;11.03;;;2.20;99.90;;;;;;5054112;28;20668;-66
2023/02/14 06:12:59;;;;;;;12.07;11.07;;;2.20;99.90;;;;;;5054474;28;20182;-67
2023/02/14 06:15:24;;;;;;;13.13;11.73;;;2.20;99.90;;;;;;5054157;28;20240;-68
2023/02/14 06:17:54;;;;;;;15.80;12.97;;;2.20;99.90;;;;;;5053915;28;20171;-66
2023/02/14 06:20:21;;;;;;;14.17;12.60;;;2.30;99.90;;;;;;5053789;28;20163;-66
2023/02/14 06:22:47;;;;;;;11.47;10.47;;;2.30;99.90;;;;;;5053832;28;20767;-67
2023/02/14 06:25:13;;;;;;;12.40;11.17;;;2.20;99.90;;;;;;5053861;28;20277;-66
2023/02/14 06:27:38;;;;;;;12.27;11.20;;;2.20;99.90;;;;;;5053669;28;20174;-68
2023/02/14 06:30:05;;;;;;;13.07;11.93;;;2.20;99.90;;;;;;5053692;28;20183;-69
2023/02/14 06:32:31;;;;;;;13.10;11.90;;;2.20;99.90;;;;;;5052485;28;20572;-70
2023/02/14 06:34:57;;;;;;;14.00;12.00;;;2.10;99.90;;;;;;5052701;28;20205;-65
2023/02/14 06:37:22;;;;;;;12.23;10.47;;;2.10;99.90;;;;;;5051807;28;20171;-65
2023/02/14 06:39:48;;;;;;;12.43;11.20;;;2.10;99.90;;;;;;5051319;28;20170;-65
2023/02/14 06:42:13;;;;;;;12.60;11.47;;;2.10;99.90;;;;;;5051664;28;20313;-65
2023/02/14 06:44:39;;;;;;;12.60;11.40;;;2.10;99.90;;;;;;5051409;28;20187;-65
2023/02/14 06:47:05;;;;;;;11.63;10.70;;;2.10;99.90;;;;;;5051266;28;20240;-65
2023/02/14 06:49:30;;;;;;;12.53;11.40;;;2.10;99.90;;;;;;5051349;28;20648;-65
2023/02/14 06:51:56;;;;;;;13.27;11.87;;;2.00;99.90;;;;;;5051245;28;20182;-65
2023/02/14 06:54:21;;;;;;;13.30;10.03;;;2.00;99.90;;;;;;5051565;28;20636;-65
2023/02/14 06:56:47;;;;;;;10.87;9.83;;;2.00;99.90;;;;;;5051543;28;20253;-65
2023/02/14 06:59:12;;;;;;;12.17;10.97;;;2.10;99.90;;;;;;5051140;28;20698;-65
2023/02/14 07:01:38;;;;;;;11.67;10.47;;;2.10;99.90;;;;;;5050489;28;20562;-66
2023/02/14 07:04:04;;;;;;;17.40;11.63;;;2.10;99.90;;;;;;5051628;28;20163;-64
2023/02/14 07:06:30;;;;;;;13.30;12.00;;;2.20;99.90;;;;;;5051492;28;20233;-65
2023/02/14 07:08:56;;;;;;;12.27;11.20;;;2.20;99.90;;;;;;5051390;28;20210;-65
2023/02/14 07:11:21;;;;;;;14.90;11.97;;;2.20;99.90;;;;;;5051388;28;20167;-65
2023/02/14 07:13:47;;;;;;;12.63;11.47;;;2.30;99.90;;;;;;5054146;28;20198;-65
2023/02/14 07:16:12;;;;;;;11.80;10.57;;;2.30;99.90;;;;;;5055894;28;20248;-65
2023/02/14 07:18:38;;;;;;;14.53;11.00;;;2.30;99.90;;;;;;5055306;28;20698;-65
2023/02/14 07:21:04;;;;;;;12.67;11.67;;;2.40;99.90;;;;;;5054820;28;20203;-65
2023/02/14 07:23:29;;;;;;;16.87;12.00;;;2.40;99.90;;;;;;5055358;28;20174;-65
2023/02/14 07:25:55;;;;;;;14.63;10.97;;;2.40;99.90;;;;;;5055024;28;20179;-65
2023/02/14 07:28:21;;;;;;;12.80;10.97;;;2.50;99.90;;;;;;5055206;28;20175;-64
2023/02/14 07:30:46;;;;;;;15.77;13.53;;;2.50;99.90;;;;;;5054765;28;20656;-65
2023/02/14 07:33:12;;;;;;;14.67;11.20;;;2.60;99.90;;;;;;5055062;28;20170;-65
2023/02/14 07:35:38;;;;;;;13.20;11.83;;;2.60;99.90;;;;;;5054900;28;20187;-65
2023/02/14 07:38:03;;;;;;;15.20;11.00;;;2.70;99.90;;;;;;5055060;28;20201;-65
2023/02/14 07:40:29;;;;;;;16.23;12.43;;;2.80;99.90;;;;;;5054805;28;20621;-65
2023/02/14 07:42:56;;;;;;;14.37;12.30;;;2.80;99.90;;;;;;5054724;28;20249;-65
2023/02/14 07:45:24;;;;;;;13.80;11.67;;;2.90;99.90;;;;;;5055580;28;20213;-65
2023/02/14 07:47:52;;;;;;;13.63;11.97;;;3.00;99.90;;;;;;5054742;28;20170;-65
2023/02/14 07:50:18;;;;;;;35.07;15.00;;;3.10;99.90;;;;;;5054481;28;20645;-65
2023/02/14 07:52:44;;;;;;;17.43;14.50;;;3.30;99.90;;;;;;5054704;28;20190;-65
2023/02/14 07:55:10;;;;;;;18.87;16.93;;;3.70;99.90;;;;;;5054787;28;20198;-65
2023/02/14 07:57:36;;;;;;;22.90;16.70;;;4.00;99.90;;;;;;5055017;28;20367;-66
2023/02/14 08:00:03;;;;;;;15.53;13.83;;;4.30;99.90;;;;;;5053516;28;20221;-64
2023/02/14 08:02:28;;;;;;;18.00;12.10;;;4.70;99.90;;;;;;5054988;28;20592;-65
2023/02/14 08:04:54;;;;;;;23.37;13.90;;;5.00;99.90;;;;;;5054331;28;20195;-65
2023/02/14 08:07:19;;;;;;;19.43;14.27;;;5.30;99.90;;;;;;5054514;28;20601;-65
2023/02/14 08:09:45;;;;;;;16.53;14.23;;;5.60;99.90;;;;;;5054236;28;20171;-65
2023/02/14 08:16:03;;;;;;;16.27;12.57;;;6.10;99.90;;;;;;5054450;28;20209;-65
2023/02/14 08:17:40;;;;;;;18.10;13.87;;;6.40;99.90;;;;;;5054180;28;20183;-65
2023/02/14 08:20:06;;;;;;;20.60;12.30;;;6.60;99.90;;;;;;5052661;28;20236;-65
2023/02/14 08:22:32;;;;;;;21.70;14.53;;;6.80;99.90;;;;;;5054232;28;20270;-63
2023/02/14 08:24:57;;;;;;;16.20;14.60;;;7.00;99.90;;;;;;5053812;28;20191;-64
2023/02/14 08:27:23;;;;;;;20.17;15.63;;;7.30;99.90;;;;;;5054459;28;20706;-64
2023/02/14 08:29:48;;;;;;;14.87;12.77;;;7.50;99.90;;;;;;5053753;28;20175;-64
2023/02/14 08:32:14;;;;;;;23.83;12.30;;;7.70;99.90;;;;;;5054144;28;20522;-64
2023/02/14 08:34:40;;;;;;;16.17;14.47;;;7.90;60.30;;;;;;5053853;28;20195;-64
2023/02/14 08:37:05;;;;;;;17.77;14.67;;;8.10;30.00;;;;;;5053777;28;20175;-64
2023/02/14 08:39:31;;;;;;;17.03;12.87;;;8.30;5.70;;;;;;5053738;28;20657;-64
2023/02/14 08:41:57;;;;;;;22.90;13.07;;;8.50;1.00;;;;;;5053908;28;20195;-64
2023/02/14 08:44:23;;;;;;;16.13;12.63;;;8.70;1.00;;;;;;5053822;28;20174;-63
2023/02/14 08:46:49;;;;;;;15.03;12.80;;;9.00;1.00;;;;;;5053599;28;20189;-63
2023/02/14 08:49:14;;;;;;;14.90;11.90;;;9.20;99.90;;;;;;5053244;28;20274;-63
2023/02/14 08:51:40;;;;;;;14.93;11.93;;;9.30;99.90;;;;;;5053494;28;20225;-63
2023/02/14 08:54:06;;;;;;;14.47;12.57;;;9.50;99.90;;;;;;5053794;28;20174;-63
2023/02/14 08:56:32;;;;;;;16.57;12.37;;;9.60;99.90;;;;;;5053471;28;20469;-63
2023/02/14 08:58:57;;;;;;;17.63;11.30;;;9.80;1.00;;;;;;5053333;28;20262;-64
2023/02/14 09:01:23;;;;;;;13.40;10.77;;;9.90;99.90;;;;;;5053068;28;20480;-64
2023/02/14 09:03:49;;;;;;;13.40;11.00;;;10.00;99.90;;;;;;5053335;28;20198;-64
2023/02/14 09:06:16;;;;;;;14.03;10.87;;;10.00;99.90;;;;;;5053418;28;20186;-64
2023/02/14 09:08:42;;;;;;;13.83;10.50;;;10.00;1.00;;;;;;5053637;28;20254;-64
2023/02/14 09:11:14;;;;;;;13.97;11.13;;;10.00;1.00;;;;;;5052901;28;20492;-64
2023/02/14 09:13:41;;;;;;;14.73;10.87;;;10.20;99.90;;;;;;5054532;28;20637;-64
2023/02/14 09:16:08;;;;;;;13.87;9.50;;;10.50;1.00;;;;;;5053153;28;20282;-64
2023/02/14 09:18:35;;;;;;;14.20;10.57;;;10.80;1.00;;;;;;5053117;28;20228;-64
2023/02/14 09:21:01;;;;;;;15.63;10.23;;;11.20;1.00;;;;;;5052579;28;20210;-64
2023/02/14 09:23:27;;;;;;;11.53;10.27;;;11.50;1.00;;;;;;5053084;28;20171;-64
2023/02/14 09:26:03;;;;;;;12.50;10.30;;;11.70;1.00;;;;;;5052810;28;20699;-64
2023/02/14 09:28:28;;;;;;;11.37;9.73;;;11.90;1.00;;;;;;5053034;28;20170;-64
2023/02/14 09:30:54;;;;;;;15.67;9.87;;;12.10;1.00;;;;;;5052501;28;20671;-64
2023/02/14 09:33:20;;;;;;;11.57;9.83;;;12.40;1.00;;;;;;5052891;28;20683;-64
2023/02/14 09:38:30;;;;;;;13.13;10.40;;;12.40;1.00;;;;;;5053155;28;20312;-64
2023/02/14 09:40:55;;;;;;;14.30;10.43;;;12.50;1.00;;;;;;5052154;28;20277;-63
2023/02/14 09:43:35;;;;;;;12.57;10.27;;;12.40;1.00;;;;;;5052772;28;20178;-64
2023/02/14 09:46:03;;;;;;;11.37;9.13;;;12.30;1.00;;;;;;5052463;28;20645;-63
2023/02/14 09:48:36;;;;;;;11.03;9.17;;;12.40;1.00;;;;;;5052959;28;20174;-63
2023/02/14 09:51:10;;;;;;;10.63;9.50;;;12.30;1.00;;;;;;5052089;28;20171;-63
2023/02/14 09:53:43;;;;;;;11.23;10.03;;;12.20;1.00;;;;;;5052470;28;20258;-63
2023/02/14 09:56:30;;;;;;;12.60;9.93;;;12.20;1.00;;;;;;5052473;28;20656;-63
2023/02/14 09:59:20;;;;;;;14.77;10.43;;;12.20;1.00;;;;;;5052197;28;20538;-63
2023/02/14 10:01:51;;;;;;;15.73;10.33;;;12.20;1.00;;;;;;5052160;28;20203;-64
2023/02/14 10:04:41;;;;;;;14.10;10.90;;;12.20;1.00;;;;;;5052414;28;20224;-64
2023/02/14 10:07:26;;;;;;;13.57;9.67;;;12.20;1.00;;;;;;5052292;28;20183;-64
2023/02/14 10:10:07;;;;;;;13.60;9.97;;;12.20;1.00;;;;;;5051859;28;20167;-64
2023/02/14 10:12:35;;;;;;;14.47;10.13;;;12.30;1.00;;;;;;5052138;28;20632;-65
2023/02/14 10:15:10;;;;;;;11.70;9.13;;;12.40;1.00;;;;;;5051905;28;20199;-64
2023/02/14 10:18:31;;;;;;;13.60;9.27;;;12.60;1.00;;;;;;5052066;28;20249;-64
2023/02/14 10:20:58;;;;;;;13.63;10.10;;;12.70;1.00;;;;;;5027417;28;20627;-63
2023/02/14 10:23:41;;;;;;;10.37;9.20;;;12.70;1.00;;;;;;5051956;28;20591;-64
2023/02/14 10:26:13;;;;;;;12.60;9.30;;;12.80;1.00;;;;;;5052033;28;20731;-64
2023/02/14 10:28:47;;;;;;;12.43;9.43;;;13.00;1.00;;;;;;5051902;28;20206;-63
2023/02/14 10:31:39;;;;;;;12.00;9.17;;;13.10;1.00;;;;;;5051487;28;20558;-64
2023/02/14 10:34:18;;;;;;;9.70;8.70;;;13.30;1.00;;;;;;5051810;28;20171;-66
2023/02/14 10:37:05;;;;;;;14.53;9.73;;;13.50;1.00;;;;;;5051671;28;20248;-64
2023/02/14 10:39:38;;;;;;;12.43;9.57;;;13.70;1.00;;;;;;5051396;28;20257;-64
2023/02/14 10:42:32;;;;;;;10.80;9.80;;;13.90;99.90;;;;;;5051636;28;20210;-64
2023/02/14 10:45:33;;;;;;;13.23;9.60;;;13.90;99.90;;;;;;5051312;28;20205;-64
2023/02/14 10:48:08;;;;;;;10.63;8.87;;;14.10;99.90;;;;;;5051427;28;20532;-65
2023/02/14 10:50:48;;;;;;;10.60;8.80;;;14.30;99.90;;;;;;5051164;28;20253;-65
2023/02/14 10:53:38;;;;;;;12.23;8.67;;;14.30;99.90;;;;;;5051381;28;20224;-65
2023/02/14 10:56:18;;;;;;;12.43;9.10;;;14.50;99.90;;;;;;5051422;28;20197;-65
2023/02/14 10:58:47;;;;;;;11.40;9.17;;;14.60;99.90;;;;;;5051626;28;20262;-65
2023/02/14 11:01:16;;;;;;;10.87;8.87;;;14.80;99.90;;;;;;5050860;28;20194;-64
2023/02/14 11:04:02;;;;;;;11.20;9.60;;;14.80;99.90;;;;;;5051250;28;20194;-64
2023/02/14 11:06:28;;;;;;;11.77;9.10;;;14.90;99.90;;;;;;5051251;28;20209;-64
2023/02/14 11:08:54;;;;;;;12.33;8.90;;;15.00;99.90;;;;;;5051316;28;20178;-64
2023/02/14 11:11:39;;;;;;;11.77;8.80;;;15.00;99.90;;;;;;5051056;28;20553;-64
2023/02/14 11:14:28;;;;;;;10.33;8.80;;;15.10;99.90;;;;;;5051415;28;20600;-64
2023/02/14 11:16:55;;;;;;;9.53;8.17;;;15.10;99.90;;;;;;5051201;28;20534;-64
2023/02/14 11:19:23;;;;;;;11.47;9.33;;;14.90;99.90;;;;;;5050840;28;20202;-64
2023/02/14 11:21:50;;;;;;;12.77;9.57;;;14.80;99.90;;;;;;5051017;28;20608;-63
2023/02/14 11:24:34;;;;;;;12.60;9.37;;;14.80;99.90;;;;;;5051161;28;20553;-64
2023/02/14 11:27:13;;;;;;;12.00;9.30;;;14.90;99.90;;;;;;5051147;28;20175;-63
2023/02/14 11:29:43;;;;;;;11.70;9.10;;;15.20;99.90;;;;;;5050779;28;20185;-64
2023/02/14 11:32:27;;;;;;;11.27;9.43;;;15.40;99.90;;;;;;5051114;28;20256;-64
2023/02/14 11:35:06;;;;;;;9.67;8.70;;;15.70;99.90;;;;;;5051052;28;20210;-64
2023/02/14 11:37:43;;;;;;;9.97;8.87;;;15.70;99.90;;;;;;5051485;28;20193;-64
2023/02/14 11:40:37;;;;;;;12.10;9.40;;;15.70;99.90;;;;;;5051057;28;20556;-64
2023/02/14 11:43:09;;;;;;;9.93;8.87;;;15.70;99.90;;;;;;5051018;28;20206;-64
2023/02/14 11:45:41;;;;;;;12.77;9.70;;;15.90;99.90;;;;;;5050783;28;20241;-64
2023/02/14 11:48:22;;;;;;;14.43;9.60;;;16.00;99.90;;;;;;5051027;28;20217;-63
2023/02/14 11:50:53;;;;;;;12.37;8.83;;;15.80;99.90;;;;;;5050575;28;20175;-64
2023/02/14 11:53:23;;;;;;;14.83;8.97;;;15.90;99.90;;;;;;5051005;28;20281;-64
2023/02/14 11:55:57;;;;;;;12.27;9.33;;;16.10;99.90;;;;;;5050842;28;20533;-64
2023/02/14 11:58:43;;;;;;;14.63;10.50;;;16.40;99.90;;;;;;5051272;28;20197;-64
2023/02/14 12:01:20;;;;;;;14.47;9.70;;;16.60;99.90;;;;;;5040265;28;20238;-64
2023/02/14 12:03:47;;;;;;;13.17;8.83;;;16.60;99.90;;;;;;5054531;28;20174;-64
2023/02/14 12:06:23;;;;;;;11.67;8.57;;;16.70;99.90;;;;;;5054570;28;20190;-64
2023/02/14 12:08:48;;;;;;;10.53;8.67;;;16.70;99.90;;;;;;5054544;28;20205;-64
2023/02/14 12:11:21;;;;;;;10.27;8.77;;;16.50;99.90;;;;;;5054088;28;20202;-64
2023/02/14 12:13:57;;;;;;;13.20;8.90;;;16.50;99.90;;;;;;5054367;28;20258;-64
2023/02/14 12:16:48;;;;;;;10.40;9.03;;;16.50;99.90;;;;;;5054677;28;20194;-64
2023/02/14 12:19:23;;;;;;;11.60;8.83;;;16.60;99.90;;;;;;5054207;28;20171;-63
2023/02/14 12:22:03;;;;;;;11.27;8.27;;;17.00;99.90;;;;;;5054184;28;20291;-64
2023/02/14 12:25:01;;;;;;;12.57;9.00;;;17.20;99.90;;;;;;5054820;28;20313;-64
2023/02/14 12:27:31;;;;;;;13.53;8.73;;;17.20;99.90;;;;;;5041828;28;20265;-63
2023/02/14 12:30:11;;;;;;;12.27;8.17;;;17.20;99.90;;;;;;5053879;28;20222;-63
2023/02/14 12:32:44;;;;;;;12.37;9.23;;;17.30;99.90;;;;;;5054009;28;20167;-63
2023/02/14 12:36:02;;;;;;;12.40;9.57;;;17.30;99.90;;;;;;5053936;28;20187;-63
2023/02/14 12:38:50;;;;;;;12.90;9.43;;;17.20;99.90;;;;;;5053867;28;20167;-64
2023/02/14 12:41:33;;;;;;;13.97;8.47;;;17.30;99.90;;;;;;5053358;28;20195;-63
2023/02/14 12:44:16;;;;;;;8.83;7.53;;;17.50;99.90;;;;;;5053963;28;20174;-63
2023/02/14 12:47:11;;;;;;;11.70;8.37;;;17.70;99.90;;;;;;5052710;28;20193;-63
2023/02/14 12:49:48;;;;;;;11.63;8.70;;;17.60;99.90;;;;;;5052596;28;20182;-64
2023/02/14 12:52:28;;;;;;;13.37;8.60;;;17.60;99.90;;;;;;5052647;28;20178;-63
2023/02/14 12:55:24;;;;;;;10.70;7.90;;;17.60;99.90;;;;;;5052513;28;20241;-63
2023/02/14 12:58:19;;;;;;;13.13;9.40;;;17.50;99.90;;;;;;5052459;28;20587;-63
2023/02/14 13:01:06;;;;;;;9.97;8.10;;;17.40;99.90;;;;;;5051223;28;20167;-63
2023/02/14 13:04:05;;;;;;;11.20;8.47;;;17.30;99.90;;;;;;5052325;28;20179;-64
2023/02/14 13:06:37;;;;;;;9.30;8.17;;;17.10;99.90;;;;;;5052335;28;20560;-64
2023/02/14 13:09:21;;;;;;;9.90;8.23;;;17.20;99.90;;;;;;5053557;28;20171;-64
2023/02/14 13:12:24;;;;;;;7.97;7.13;;;17.20;99.90;;;;;;5051097;28;20252;-63
2023/02/14 13:15:11;;;;;;;11.37;8.67;;;17.40;99.90;;;;;;5051993;28;20274;-63
2023/02/14 13:17:42;;;;;;;10.10;8.47;;;17.70;99.90;;;;;;5052187;28;20185;-63
2023/02/14 13:20:39;;;;;;;9.50;8.30;;;17.80;99.90;;;;;;5052022;28;20171;-63
2023/02/14 13:23:27;;;;;;;12.50;7.93;;;17.70;99.90;;;;;;5051900;28;20230;-63